Time;durP1;ratioP1;P1;durP2;ratioP2;P2;SDS_P1;SDS_P2;PMS_P1;PMS_P2;Temp;Humidity;BMP_temperature;BMP_pressure;BME280_temperature;BME280_humidity;BME280_pressure;Samples;Min_cycle;Max_cycle;Signal;HPM_P1;HPM_P2
2022/09/24 00:01:28;;;;;;;23.25;12.85;;;;;;;13.50;74.34;99697.34;5109412;27;20078;-87
2022/09/24 00:04:00;;;;;;;25.50;13.02;;;;;;;13.42;74.36;99693.63;5092448;27;20047;-87
2022/09/24 00:06:29;;;;;;;20.92;11.82;;;;;;;13.47;74.57;99698.47;5091316;27;20126;-87
2022/09/24 00:08:57;;;;;;;25.40;14.10;;;;;;;13.46;74.66;99694.16;5096527;27;20036;-88
2022/09/24 00:11:25;;;;;;;21.40;12.80;;;;;;;13.47;74.73;99695.81;5093968;27;20071;-88
2022/09/24 00:13:52;;;;;;;19.73;12.73;;;;;;;13.49;74.72;99696.50;5108739;27;20054;-87
2022/09/24 00:16:21;;;;;;;20.75;11.68;;;;;;;13.42;74.80;99682.13;5072756;27;20115;-88
2022/09/24 00:18:48;;;;;;;25.02;13.23;;;;;;;13.46;74.70;99691.47;5082926;27;20054;-88
2022/09/24 00:21:24;;;;;;;19.05;12.95;;;;;;;13.38;75.13;99686.94;5080131;27;20142;-88
2022/09/24 00:23:56;;;;;;;25.00;13.32;;;;;;;13.41;74.90;99689.28;5124356;27;20036;-89
2022/09/24 00:29:10;;;;;;;28.05;13.13;;;;;;;13.44;74.88;99688.13;5120721;27;20031;-88
2022/09/24 00:31:37;;;;;;;21.55;12.63;;;;;;;13.45;74.84;99679.13;5067504;27;20143;-88
2022/09/24 00:34:04;;;;;;;25.75;13.20;;;;;;;13.44;74.65;99670.28;5082811;27;20115;-88
2022/09/24 00:36:30;;;;;;;21.73;13.45;;;;;;;13.58;74.16;99676.03;5108580;27;20113;-88
2022/09/24 00:38:58;;;;;;;25.70;13.30;;;;;;;13.61;74.01;99681.03;5074522;27;20038;-88
2022/09/24 00:41:28;;;;;;;23.77;13.77;;;;;;;13.54;73.95;99677.34;5104299;27;20481;-88
2022/09/24 00:43:55;;;;;;;23.38;12.57;;;;;;;13.54;74.33;99675.53;5073856;27;20054;-87
2022/09/24 00:46:33;;;;;;;22.20;13.15;;;;;;;13.53;73.79;99673.81;5074519;27;20058;-88
2022/09/24 00:49:04;;;;;;;24.85;13.38;;;;;;;13.53;73.56;99660.50;5089756;27;20395;-88
2022/09/24 00:51:31;;;;;;;22.58;12.30;;;;;;;13.52;74.03;99658.00;5104601;27;20091;-89
2022/09/24 00:54:05;;;;;;;24.77;13.73;;;;;;;13.45;73.90;99658.63;5103921;27;20122;-86
2022/09/24 00:56:35;;;;;;;26.00;14.30;;;;;;;13.54;73.68;99656.00;5076663;27;20268;-86
2022/09/24 00:59:04;;;;;;;24.83;12.77;;;;;;;13.54;73.45;99648.00;5102852;27;20026;-86
2022/09/24 01:01:30;;;;;;;26.35;12.98;;;;;;;13.53;73.64;99643.66;5104267;27;20138;-86
2022/09/24 01:03:58;;;;;;;26.20;13.40;;;;;;;13.52;73.87;99637.50;5066651;27;20150;-86
2022/09/24 01:06:25;;;;;;;22.40;12.40;;;;;;;13.51;73.84;99633.16;5104829;27;20133;-87
2022/09/24 01:08:54;;;;;;;24.90;13.30;;;;;;;13.49;74.00;99629.81;5083878;27;20133;-86
2022/09/24 01:11:39;;;;;;;22.02;12.77;;;;;;;13.45;73.87;99625.78;5099251;27;20134;-87
2022/09/24 01:14:30;;;;;;;19.23;12.05;;;;;;;13.33;74.38;99627.91;5070967;27;20078;-86
2022/09/24 01:17:18;;;;;;;22.05;12.35;;;;;;;13.25;74.98;99626.00;5072114;27;20138;-86
2022/09/24 01:19:54;;;;;;;21.98;12.10;;;;;;;13.30;74.88;99627.38;5107359;27;20043;-86
2022/09/24 01:22:41;;;;;;;25.77;12.55;;;;;;;13.26;75.00;99613.50;5100593;27;20047;-87
2022/09/24 01:25:45;;;;;;;22.73;12.68;;;;;;;13.16;75.31;99616.28;5090662;27;20057;-86
2022/09/24 01:28:26;;;;;;;25.70;13.00;;;;;;;13.25;75.01;99614.47;5105656;27;20157;-86
2022/09/24 01:30:58;;;;;;;27.05;13.07;;;;;;;13.28;75.18;99608.00;5091098;27;20047;-86
2022/09/24 01:33:27;;;;;;;23.70;13.15;;;;;;;13.34;74.91;99605.56;5072366;27;20056;-86
2022/09/24 01:35:57;;;;;;;22.65;13.82;;;;;;;13.29;75.02;99607.88;5075833;27;20100;-86
2022/09/24 01:38:27;;;;;;;23.27;13.20;;;;;;;13.31;75.18;99607.72;5077215;27;20119;-86
2022/09/24 01:40:56;;;;;;;26.25;12.63;;;;;;;13.30;75.38;99598.88;5084394;27;20050;-85
2022/09/24 01:43:24;;;;;;;25.15;13.30;;;;;;;13.31;75.24;99603.22;5087434;27;20114;-86
2022/09/24 01:45:51;;;;;;;21.08;12.52;;;;;;;13.33;75.09;99609.25;5088775;27;20104;-86
2022/09/24 01:48:20;;;;;;;21.15;12.00;;;;;;;13.34;75.26;99599.41;5057408;27;20043;-86
2022/09/24 01:50:59;;;;;;;20.30;12.13;;;;;;;13.24;75.51;99591.47;5089906;27;20126;-86
2022/09/24 01:53:28;;;;;;;17.50;11.75;;;;;;;13.28;75.53;99586.69;5099349;27;20042;-86
2022/09/24 01:56:04;;;;;;;25.70;14.05;;;;;;;13.28;75.40;99594.69;5079743;27;20115;-86
2022/09/24 01:58:44;;;;;;;20.42;11.88;;;;;;;13.17;75.64;99593.09;5086697;27;20087;-86
2022/09/24 02:01:16;;;;;;;20.00;11.85;;;;;;;13.24;75.32;99594.97;5076480;27;20512;-86
2022/09/24 02:03:47;;;;;;;22.70;12.13;;;;;;;13.24;75.30;99596.81;5073969;27;20055;-86
2022/09/24 02:06:17;;;;;;;26.27;13.43;;;;;;;13.24;75.50;99600.31;5088902;27;20547;-85
2022/09/24 02:08:45;;;;;;;24.90;13.25;;;;;;;13.26;75.65;99594.84;5101290;27;20088;-86
2022/09/24 02:11:21;;;;;;;20.33;12.68;;;;;;;13.20;75.61;99584.78;5094152;27;20412;-86
2022/09/24 02:13:55;;;;;;;24.10;12.52;;;;;;;13.23;75.69;99587.16;5085824;27;20630;-86
2022/09/24 02:16:35;;;;;;;21.25;12.52;;;;;;;13.25;75.28;99577.13;5117089;27;20111;-86
2022/09/24 02:19:05;;;;;;;21.27;12.05;;;;;;;13.27;75.24;99580.53;5080020;27;20057;-86
2022/09/24 02:21:33;;;;;;;21.80;13.45;;;;;;;13.24;75.52;99578.97;5071898;27;20563;-86
2022/09/24 02:24:04;;;;;;;26.70;14.07;;;;;;;13.26;75.50;99581.50;5109146;27;20035;-87
2022/09/24 02:26:31;;;;;;;20.02;12.80;;;;;;;13.30;75.43;99592.69;5105454;27;20121;-86
2022/09/24 02:28:58;;;;;;;20.58;12.40;;;;;;;13.23;75.38;99577.31;5118689;27;20413;-87
2022/09/24 02:31:36;;;;;;;20.83;12.98;;;;;;;13.10;75.60;99576.91;5087624;27;20217;-86
2022/09/24 02:34:22;;;;;;;22.45;13.82;;;;;;;13.18;75.57;99576.13;5079439;27;20383;-86
2022/09/24 02:36:52;;;;;;;26.98;13.43;;;;;;;13.17;75.59;99577.09;5092472;27;20172;-85
2022/09/24 02:39:19;;;;;;;26.52;13.20;;;;;;;13.18;75.35;99562.81;5081558;27;20142;-86
2022/09/24 02:41:47;;;;;;;20.08;12.23;;;;;;;13.20;75.68;99561.66;5067512;27;20513;-86
2022/09/24 02:44:15;;;;;;;20.30;12.05;;;;;;;13.18;75.57;99568.97;5086620;28;20054;-85
2022/09/24 02:46:43;;;;;;;26.58;13.13;;;;;;;13.21;75.64;99573.13;5091868;27;20042;-86
2022/09/24 02:49:10;;;;;;;18.67;12.32;;;;;;;13.15;75.63;99565.75;5071667;27;20051;-85
2022/09/24 02:51:36;;;;;;;19.75;12.85;;;;;;;13.12;75.60;99571.41;5081269;27;20460;-85
2022/09/24 02:54:03;;;;;;;22.92;13.52;;;;;;;13.12;75.32;99566.09;5092277;27;20478;-85
2022/09/24 02:56:30;;;;;;;24.95;12.32;;;;;;;13.14;75.23;99564.94;5081265;27;20070;-86
2022/09/24 02:58:57;;;;;;;21.50;12.05;;;;;;;13.14;75.22;99564.94;5085020;27;20178;-86
2022/09/24 03:01:24;;;;;;;20.70;11.95;;;;;;;13.12;75.37;99552.75;5116304;27;20035;-86
2022/09/24 03:03:51;;;;;;;24.05;11.98;;;;;;;13.13;75.03;99560.59;5100047;27;20135;-86
2022/09/24 03:06:18;;;;;;;20.85;11.25;;;;;;;13.12;75.09;99572.25;5117304;27;20081;-86
2022/09/24 03:08:44;;;;;;;20.60;11.43;;;;;;;13.10;75.04;99576.06;5105973;27;20497;-86
2022/09/24 03:11:12;;;;;;;17.08;11.63;;;;;;;13.07;75.01;99579.88;5073702;27;20090;-85
2022/09/24 03:13:44;;;;;;;22.00;12.07;;;;;;;13.01;75.13;99576.03;5064690;27;20503;-85
2022/09/24 03:16:11;;;;;;;22.88;11.90;;;;;;;12.97;75.12;99572.00;5077586;27;20090;-86
2022/09/24 03:18:37;;;;;;;20.67;12.32;;;;;;;12.96;75.49;99588.97;5100435;27;20052;-86
2022/09/24 03:21:09;;;;;;;23.05;12.18;;;;;;;12.95;75.38;99584.66;5092753;27;20130;-86
2022/09/24 03:23:36;;;;;;;20.75;12.70;;;;;;;12.94;75.37;99585.63;5072462;27;20071;-86
2022/09/24 03:26:03;;;;;;;21.83;11.80;;;;;;;13.01;75.09;99583.19;5098585;27;20047;-85
2022/09/24 03:28:30;;;;;;;20.08;12.30;;;;;;;12.98;75.13;99591.50;5087733;27;20099;-85
2022/09/24 03:31:00;;;;;;;25.63;11.40;;;;;;;12.97;75.15;99573.81;5091955;27;20547;-85
2022/09/24 03:33:42;;;;;;;19.17;11.05;;;;;;;12.79;75.43;99571.22;5088775;27;20031;-85
2022/09/24 03:36:15;;;;;;;17.17;10.90;;;;;;;12.90;74.86;99562.13;5091739;27;20467;-85
2022/09/24 03:38:44;;;;;;;20.27;11.00;;;;;;;12.86;75.04;99566.09;5123481;27;20035;-85
2022/09/24 03:41:11;;;;;;;19.67;11.15;;;;;;;12.85;75.32;99565.28;5086419;27;20106;-85
2022/09/24 03:43:38;;;;;;;21.45;12.07;;;;;;;12.85;75.27;99559.94;5087320;27;20071;-85
2022/09/24 03:46:06;;;;;;;22.55;11.07;;;;;;;12.89;75.05;99552.47;5074325;27;20138;-85
2022/09/24 03:48:35;;;;;;;20.02;11.55;;;;;;;12.88;75.08;99542.81;5102276;27;20096;-86
2022/09/24 03:51:13;;;;;;;27.30;11.45;;;;;;;12.79;74.93;99544.56;5071100;27;20035;-86
2022/09/24 03:53:40;;;;;;;15.45;10.82;;;;;;;12.93;74.65;99548.50;5082420;27;20109;-85
2022/09/24 03:56:07;;;;;;;21.52;11.52;;;;;;;12.96;74.53;99548.19;5083788;27;20089;-86
2022/09/24 03:58:37;;;;;;;17.23;10.15;;;;;;;12.92;74.68;99547.63;5086145;27;20149;-86
2022/09/24 04:01:09;;;;;;;17.77;10.98;;;;;;;12.85;74.67;99551.09;5100151;27;20368;-86
2022/09/24 04:03:36;;;;;;;25.23;12.18;;;;;;;12.93;74.88;99552.00;5066996;27;20058;-86
2022/09/24 04:06:04;;;;;;;22.58;12.10;;;;;;;12.82;75.11;99550.44;5083652;27;20134;-86
2022/09/24 04:08:31;;;;;;;25.88;12.00;;;;;;;12.80;75.13;99549.75;5104675;27;20142;-86
2022/09/24 04:10:58;;;;;;;21.42;11.35;;;;;;;12.84;75.04;99539.59;5078519;27;20085;-86
2022/09/24 04:13:25;;;;;;;19.95;11.52;;;;;;;12.81;74.84;99543.41;5082039;27;20104;-86
2022/09/24 04:15:52;;;;;;;21.83;11.18;;;;;;;12.77;74.99;99541.22;5095611;27;20451;-86
2022/09/24 04:18:19;;;;;;;20.05;11.25;;;;;;;12.75;75.11;99530.75;5068471;27;20210;-85
2022/09/24 04:20:45;;;;;;;21.88;11.27;;;;;;;12.74;75.01;99530.88;5072607;27;20142;-86
2022/09/24 04:23:12;;;;;;;21.05;11.05;;;;;;;12.74;74.86;99537.03;5091905;27;20066;-86
2022/09/24 04:25:39;;;;;;;23.08;10.90;;;;;;;12.70;75.06;99527.72;5085029;27;20469;-86
2022/09/24 04:28:08;;;;;;;21.70;11.90;;;;;;;12.66;75.07;99529.00;5073036;27;20043;-86
2022/09/24 04:30:35;;;;;;;17.63;10.70;;;;;;;12.67;74.96;99532.50;5103253;27;20246;-86
2022/09/24 04:33:02;;;;;;;18.48;11.60;;;;;;;12.66;74.87;99537.00;5118354;27;20067;-86
2022/09/24 04:35:30;;;;;;;19.98;11.48;;;;;;;12.69;74.78;99523.34;5100262;27;20058;-85
2022/09/24 04:37:58;;;;;;;23.15;11.65;;;;;;;12.63;74.88;99528.50;5089413;27;20490;-86
2022/09/24 04:40:25;;;;;;;19.33;11.27;;;;;;;12.60;74.63;99525.16;5076573;27;20402;-86
2022/09/24 04:42:52;;;;;;;20.27;12.80;;;;;;;12.62;74.63;99519.69;5084279;27;20517;-86
2022/09/24 04:45:19;;;;;;;24.25;11.95;;;;;;;12.62;74.44;99506.34;5102836;27;20500;-86
2022/09/24 04:47:51;;;;;;;19.45;12.15;;;;;;;12.62;74.05;99510.81;5101114;27;20436;-86
2022/09/24 04:50:19;;;;;;;18.13;12.27;;;;;;;12.65;74.42;99514.03;5059279;27;20043;-86
2022/09/24 04:52:52;;;;;;;25.30;12.30;;;;;;;12.64;74.65;99524.81;5108050;27;20050;-86
2022/09/24 04:55:21;;;;;;;20.60;10.77;;;;;;;12.58;74.43;99532.44;5077759;27;20070;-86
2022/09/24 04:57:49;;;;;;;20.17;11.60;;;;;;;12.52;74.52;99534.91;5091209;27;20371;-86
2022/09/24 05:00:18;;;;;;;17.55;10.73;;;;;;;12.50;74.54;99542.22;5108682;27;20039;-86
2022/09/24 05:02:45;;;;;;;23.52;11.13;;;;;;;12.42;74.70;99537.66;5120088;27;20046;-86
2022/09/24 05:05:12;;;;;;;20.38;11.80;;;;;;;12.49;74.39;99528.06;5063431;27;20130;-85
2022/09/24 05:07:40;;;;;;;22.13;11.15;;;;;;;12.40;74.22;99529.00;5120563;27;20446;-87
2022/09/24 05:10:07;;;;;;;23.05;11.38;;;;;;;12.42;74.23;99526.19;5095141;27;20063;-87
2022/09/24 05:12:35;;;;;;;21.15;11.10;;;;;;;12.40;74.38;99534.31;5119878;27;20117;-87
2022/09/24 05:15:03;;;;;;;19.70;11.00;;;;;;;12.35;74.57;99536.63;5114313;27;20126;-87
2022/09/24 05:17:30;;;;;;;20.70;11.25;;;;;;;12.39;74.57;99535.31;5071224;27;20652;-87
2022/09/24 05:19:58;;;;;;;17.13;10.20;;;;;;;12.36;74.61;99533.81;5113357;27;20130;-87
2022/09/24 05:22:28;;;;;;;16.13;10.60;;;;;;;12.33;74.46;99531.44;5115091;27;20055;-87
2022/09/24 05:24:55;;;;;;;17.23;11.07;;;;;;;12.35;74.73;99524.13;5105495;27;20557;-87
2022/09/24 05:27:23;;;;;;;19.67;11.27;;;;;;;12.36;74.76;99531.16;5090768;27;20548;-86
2022/09/24 05:29:49;;;;;;;18.85;10.88;;;;;;;12.29;74.89;99535.41;5074195;27;20051;-86
2022/09/24 05:32:19;;;;;;;20.58;11.23;;;;;;;12.27;74.83;99531.22;5088742;27;20039;-86
2022/09/24 05:34:46;;;;;;;16.77;10.82;;;;;;;12.33;75.06;99528.75;5075205;27;20514;-86
2022/09/24 05:37:13;;;;;;;21.52;11.43;;;;;;;12.46;74.30;99535.53;5092219;27;20139;-86
2022/09/24 05:39:40;;;;;;;21.67;11.10;;;;;;;12.50;74.50;99536.91;5093364;27;20058;-86
2022/09/24 05:42:13;;;;;;;16.70;10.93;;;;;;;12.41;74.98;99543.13;5058869;27;20036;-86
2022/09/24 05:44:40;;;;;;;19.63;11.13;;;;;;;12.47;75.08;99545.19;5073099;27;20061;-86
2022/09/24 05:47:07;;;;;;;23.42;12.60;;;;;;;12.46;75.33;99551.50;5083867;27;20074;-86
2022/09/24 05:49:34;;;;;;;28.88;11.38;;;;;;;12.47;75.33;99550.53;5096047;27;20494;-86
2022/09/24 05:52:01;;;;;;;26.35;11.77;;;;;;;12.46;75.77;99555.00;5117843;27;20047;-86
2022/09/24 05:54:28;;;;;;;16.40;10.93;;;;;;;12.52;75.46;99558.88;5103935;27;20049;-86
2022/09/24 05:56:55;;;;;;;18.85;11.77;;;;;;;12.52;75.50;99559.72;5115815;27;20070;-85
2022/09/24 05:59:23;;;;;;;20.50;11.38;;;;;;;12.51;75.29;99558.03;5095700;27;20468;-86
2022/09/24 06:01:50;;;;;;;20.00;11.85;;;;;;;12.55;75.31;99561.25;5071703;27;20035;-85
2022/09/24 06:04:17;;;;;;;24.20;11.80;;;;;;;12.54;75.21;99568.41;5087427;27;20867;-85
2022/09/24 06:06:44;;;;;;;22.52;12.10;;;;;;;12.55;75.01;99567.41;5081586;27;20043;-85
2022/09/24 06:09:11;;;;;;;20.08;11.82;;;;;;;12.58;74.70;99564.41;5106939;27;20127;-85
2022/09/24 06:11:38;;;;;;;23.75;12.75;;;;;;;12.56;74.70;99573.56;5096925;27;20406;-85
2022/09/24 06:14:07;;;;;;;23.70;12.27;;;;;;;12.60;74.48;99567.75;5079424;27;20046;-85
2022/09/24 06:16:34;;;;;;;28.02;13.23;;;;;;;12.66;74.48;99565.47;5088522;27;20130;-85
2022/09/24 06:19:01;;;;;;;26.33;13.00;;;;;;;12.66;74.62;99554.81;5092107;27;20043;-86
2022/09/24 06:21:28;;;;;;;22.67;12.20;;;;;;;12.66;74.33;99558.31;5135961;27;20095;-86
2022/09/24 06:23:55;;;;;;;24.00;13.18;;;;;;;12.63;74.56;99566.63;5099735;27;20134;-85
2022/09/24 06:26:21;;;;;;;22.70;13.15;;;;;;;12.66;74.27;99563.63;5095508;28;20035;-86
2022/09/24 06:28:48;;;;;;;27.73;12.50;;;;;;;12.64;74.44;99562.94;5085216;27;20079;-85
2022/09/24 06:31:15;;;;;;;28.98;13.80;;;;;;;12.65;74.51;99561.97;5136983;27;20034;-85
2022/09/24 06:33:41;;;;;;;24.25;13.00;;;;;;;12.65;74.43;99563.81;5088595;27;20050;-85
2022/09/24 06:36:09;;;;;;;24.48;13.18;;;;;;;12.67;74.60;99567.13;5086215;27;20498;-86
2022/09/24 06:38:38;;;;;;;24.67;13.40;;;;;;;12.68;74.83;99569.66;5083765;27;20070;-85
2022/09/24 06:41:05;;;;;;;27.02;13.60;;;;;;;12.71;74.55;99573.84;5125897;27;20490;-85
2022/09/24 06:43:32;;;;;;;24.52;13.18;;;;;;;12.69;74.91;99578.47;5084165;27;20054;-85
2022/09/24 06:45:59;;;;;;;24.85;13.00;;;;;;;12.76;74.74;99587.53;5100373;28;20043;-85
2022/09/24 06:48:27;;;;;;;25.80;12.88;;;;;;;12.76;74.74;99591.00;5075905;27;20108;-86
2022/09/24 06:50:55;;;;;;;23.95;12.98;;;;;;;12.79;74.86;99588.03;5088783;27;20183;-86
2022/09/24 06:53:22;;;;;;;27.85;12.95;;;;;;;12.80;74.67;99596.88;5087591;27;20516;-87
2022/09/24 06:55:49;;;;;;;21.80;13.30;;;;;;;12.81;74.70;99594.03;5095541;27;20039;-87
2022/09/24 06:58:18;;;;;;;25.23;13.27;;;;;;;12.82;74.88;99597.53;5083110;27;20065;-87
2022/09/24 07:00:53;;;;;;;26.02;13.48;;;;;;;12.78;75.08;99594.38;5100077;27;20485;-87
2022/09/24 07:03:21;;;;;;;24.15;14.27;;;;;;;12.86;74.91;99595.41;5131545;27;20048;-87
2022/09/24 07:05:48;;;;;;;27.70;14.50;;;;;;;12.89;74.64;99582.59;5113647;27;20421;-86
2022/09/24 07:08:15;;;;;;;24.13;15.52;;;;;;;12.87;74.75;99589.09;5105568;27;20138;-86
2022/09/24 07:10:46;;;;;;;31.38;16.08;;;;;;;12.82;74.74;99584.22;5087659;27;20039;-87
2022/09/24 07:13:13;;;;;;;21.85;14.57;;;;;;;12.87;74.93;99589.91;5054534;27;20047;-87
2022/09/24 07:15:40;;;;;;;26.27;14.52;;;;;;;12.96;74.67;99601.47;5111412;27;20121;-86
2022/09/24 07:18:08;;;;;;;22.02;13.85;;;;;;;12.99;74.83;99604.66;5095897;27;20045;-87
2022/09/24 07:20:35;;;;;;;27.17;14.02;;;;;;;13.08;74.56;99605.56;5093174;27;20117;-86
2022/09/24 07:23:04;;;;;;;22.35;13.73;;;;;;;13.12;74.52;99606.91;5111147;28;20043;-87
2022/09/24 07:25:30;;;;;;;24.55;14.32;;;;;;;13.14;74.41;99596.91;5088970;27;20142;-86
2022/09/24 07:28:04;;;;;;;23.23;14.30;;;;;;;13.08;74.83;99604.69;5112073;27;20043;-87
2022/09/24 07:30:32;;;;;;;29.23;15.23;;;;;;;13.11;74.65;99599.09;5095644;27;20067;-87
2022/09/24 07:32:59;;;;;;;28.63;14.02;;;;;;;13.09;75.03;99596.56;5104512;27;20043;-87
2022/09/24 07:35:26;;;;;;;23.75;15.00;;;;;;;13.09;74.71;99590.41;5087896;27;20129;-87
2022/09/24 07:38:01;;;;;;;27.92;15.00;;;;;;;13.07;75.42;99597.72;5098040;27;20134;-87
2022/09/24 07:40:29;;;;;;;35.53;15.77;;;;;;;13.17;74.97;99603.75;5085920;27;20402;-87
2022/09/24 07:42:56;;;;;;;25.63;14.98;;;;;;;13.19;74.85;99602.63;5099301;27;20047;-87
2022/09/24 07:45:23;;;;;;;25.88;15.52;;;;;;;13.23;74.73;99603.97;5111289;27;20468;-87
2022/09/24 07:48:01;;;;;;;30.05;14.90;;;;;;;13.12;75.19;99600.75;5103695;27;20537;-87
2022/09/24 07:50:29;;;;;;;31.23;14.60;;;;;;;13.25;74.81;99593.13;5116416;27;20477;-88
2022/09/24 07:52:56;;;;;;;28.10;14.98;;;;;;;13.28;74.97;99602.69;5090071;27;20040;-87
2022/09/24 07:55:23;;;;;;;25.15;14.50;;;;;;;13.34;74.59;99604.72;5122714;27;20051;-86
2022/09/24 07:57:51;;;;;;;36.03;16.08;;;;;;;13.31;74.61;99600.56;5095661;27;20035;-87
2022/09/24 08:00:19;;;;;;;25.02;14.55;;;;;;;13.36;74.54;99606.25;5078355;27;20036;-86
2022/09/24 08:02:46;;;;;;;31.00;17.48;;;;;;;13.40;74.45;99596.91;5089186;27;20465;-87
2022/09/24 08:05:15;;;;;;;33.50;16.48;;;;;;;13.46;74.18;99598.97;5116204;27;20135;-87
2022/09/24 08:07:42;;;;;;;30.40;16.05;;;;;;;13.52;74.23;99609.97;5110440;27;20496;-87
2022/09/24 08:10:09;;;;;;;31.75;17.17;;;;;;;13.55;73.94;99602.47;5102047;27;20049;-87
2022/09/24 08:12:36;;;;;;;27.38;15.23;;;;;;;13.55;74.17;99610.50;5096482;27;20421;-84
2022/09/24 08:15:02;;;;;;;29.55;15.70;;;;;;;13.61;73.99;99615.19;5134741;27;20065;-84
2022/09/24 08:17:30;;;;;;;28.20;16.15;;;;;;;13.66;73.74;99617.34;5110270;27;20085;-83
2022/09/24 08:19:56;;;;;;;27.40;16.42;;;;;;;13.68;73.64;99618.03;5110422;27;20078;-85
2022/09/24 08:22:23;;;;;;;26.95;16.20;;;;;;;13.74;73.71;99617.41;5119815;27;20127;-86
2022/09/24 08:24:51;;;;;;;29.63;16.10;;;;;;;13.79;73.55;99619.56;5107624;27;20510;-84
2022/09/24 08:27:22;;;;;;;32.97;16.33;;;;;;;13.83;73.64;99620.94;5098533;27;20142;-87
2022/09/24 08:29:49;;;;;;;31.60;16.15;;;;;;;13.87;73.53;99620.44;5088042;27;20059;-87
2022/09/24 08:32:16;;;;;;;38.83;17.88;;;;;;;13.91;73.22;99618.28;5092311;27;20074;-85
2022/09/24 08:34:44;;;;;;;33.83;16.55;;;;;;;13.96;73.37;99623.97;5093546;27;20047;-85
2022/09/24 08:37:12;;;;;;;31.42;17.50;;;;;;;13.98;73.21;99616.63;5074906;27;20067;-85
2022/09/24 08:39:38;;;;;;;30.90;17.88;;;;;;;14.03;72.97;99614.31;5111140;27;20130;-86
2022/09/24 08:42:17;;;;;;;43.70;19.67;;;;;;;14.03;73.18;99613.47;5118050;27;20039;-84
2022/09/24 08:47:48;;;;;;;32.80;18.92;;;;;;;14.03;73.30;99614.31;5106570;27;20085;-85
2022/09/24 08:50:19;;;;;;;35.53;18.10;;;;;;;14.11;73.48;99617.00;5101685;27;20118;-85
2022/09/24 08:53:00;;;;;;;29.85;15.95;;;;;;;14.04;73.74;99616.00;5112050;27;20117;-85
2022/09/24 08:55:33;;;;;;;34.55;18.58;;;;;;;14.10;73.88;99610.00;5107717;27;20054;-86
2022/09/24 08:58:09;;;;;;;;;;;;;;;13.95;74.42;99598.28;5132844;27;20067;-86
2022/09/24 09:00:42;;;;;;;32.50;16.63;;;;;;;14.11;73.66;99600.97;5129809;27;20374;-86
2022/09/24 09:03:30;;;;;;;31.58;17.23;;;;;;;14.13;73.63;99602.66;5104129;27;20039;-82
2022/09/24 09:06:02;;;;;;;30.92;17.85;;;;;;;14.19;73.31;99613.50;5140033;27;20062;-83
2022/09/24 09:08:47;;;;;;;28.08;18.77;;;;;;;14.17;73.60;99614.66;5101977;27;20428;-83
2022/09/24 09:11:34;;;;;;;29.85;17.45;;;;;;;14.28;73.69;99609.03;5075062;27;20039;-83
2022/09/24 09:14:16;;;;;;;36.97;18.42;;;;;;;14.23;74.08;99612.19;5113656;27;20364;-82
2022/09/24 09:16:53;;;;;;;42.45;19.50;;;;;;;14.27;74.22;99604.66;5117178;27;20103;-83
2022/09/24 09:19:23;;;;;;;35.67;18.40;;;;;;;14.33;73.86;99609.38;5122104;27;20074;-83
2022/09/24 09:21:57;;;;;;;35.03;19.80;;;;;;;14.29;74.13;99611.50;5087631;27;20115;-82
2022/09/24 09:24:51;;;;;;;32.15;18.48;;;;;;;14.22;74.57;99613.19;5107116;27;20143;-82
2022/09/24 09:27:19;;;;;;;30.67;17.17;;;;;;;14.34;74.29;99609.19;5130463;27;20142;-82
2022/09/24 09:29:49;;;;;;;32.67;19.10;;;;;;;14.36;74.21;99601.00;5115451;27;20066;-82
2022/09/24 09:32:37;;;;;;;44.28;21.15;;;;;;;14.39;74.31;99605.19;5114855;27;20404;-82
2022/09/24 09:35:22;;;;;;;39.17;20.20;;;;;;;14.29;74.71;99603.50;5109435;27;20486;-82
2022/09/24 09:38:18;;;;;;;35.45;18.08;;;;;;;14.38;74.33;99609.69;5115406;27;20041;-82
2022/09/24 09:40:49;;;;;;;34.50;18.40;;;;;;;14.44;74.13;99608.19;5129907;27;20043;-82
2022/09/24 09:43:17;;;;;;;40.88;19.73;;;;;;;14.48;74.02;99609.56;5105667;27;20043;-82
2022/09/24 09:45:53;;;;;;;38.42;20.58;;;;;;;14.47;74.03;99607.84;5095729;27;20095;-82
2022/09/24 09:48:21;;;;;;;41.40;18.63;;;;;;;14.53;74.06;99609.91;5136976;27;20522;-82
2022/09/24 09:50:50;;;;;;;32.13;17.55;;;;;;;14.56;73.85;99604.22;5087307;27;20059;-82
2022/09/24 09:53:20;;;;;;;36.33;19.65;;;;;;;14.57;73.99;99611.22;5087370;27;20127;-82
2022/09/24 09:55:53;;;;;;;35.42;19.77;;;;;;;14.62;74.00;99605.41;5077280;27;20482;-83
2022/09/24 09:58:28;;;;;;;32.50;18.08;;;;;;;14.65;73.94;99607.72;5101045;27;20062;-83
2022/09/24 10:01:06;;;;;;;34.22;19.00;;;;;;;14.64;74.01;99600.72;5093337;27;20047;-84
2022/09/24 10:03:48;;;;;;;37.20;19.10;;;;;;;14.69;73.92;99603.72;5107153;27;20039;-84
2022/09/24 10:06:26;;;;;;;31.27;17.70;;;;;;;14.71;73.83;99599.06;5133149;27;20054;-84
2022/09/24 10:08:53;;;;;;;35.10;16.85;;;;;;;14.82;73.78;99608.56;5075591;27;20482;-84
2022/09/24 10:11:21;;;;;;;33.72;17.73;;;;;;;14.86;73.80;99601.88;5090899;27;20654;-84
2022/09/24 10:14:08;;;;;;;36.85;18.65;;;;;;;14.80;73.88;99598.03;5115218;27;20049;-84
2022/09/24 10:16:37;;;;;;;28.92;15.95;;;;;;;14.92;73.53;99595.84;5087058;27;20074;-84
2022/09/24 10:19:13;;;;;;;35.65;19.58;;;;;;;14.92;73.93;99595.84;5077468;27;20100;-84
2022/09/24 10:21:40;;;;;;;35.25;19.08;;;;;;;15.01;73.83;99591.31;5104386;27;20532;-84
2022/09/24 10:24:15;;;;;;;29.45;17.25;;;;;;;14.98;74.15;99582.66;5079552;27;20625;-83
2022/09/24 10:26:43;;;;;;;36.50;18.92;;;;;;;15.05;74.27;99585.44;5101391;27;20164;-85
2022/09/24 10:32:01;;;;;;;37.78;18.73;;;;;;;15.13;74.36;99579.25;5086492;27;20047;-84
2022/09/24 10:34:28;;;;;;;32.05;17.45;;;;;;;15.16;74.44;99577.09;5086348;27;20130;-83
2022/09/24 10:37:02;;;;;;;34.22;18.60;;;;;;;15.17;74.55;99576.06;5114678;27;20056;-82
2022/09/24 10:39:35;;;;;;;35.55;19.40;;;;;;;15.22;74.59;99580.09;5103178;27;20047;-83
2022/09/24 10:42:02;;;;;;;35.70;15.80;;;;;;;15.25;74.48;99572.53;5104364;27;20047;-83
2022/09/24 10:44:34;;;;;;;28.17;14.20;;;;;;;15.26;74.05;99576.03;5070823;27;20057;-83
2022/09/24 10:47:21;;;;;;;23.35;11.70;;;;;;;15.21;74.42;99573.88;5090486;27;20137;-83
2022/09/24 10:49:58;;;;;;;28.67;13.50;;;;;;;15.33;74.08;99585.03;5068298;27;20052;-83
2022/09/24 10:52:35;;;;;;;20.35;10.90;;;;;;;15.35;74.11;99578.50;5107625;27;20038;-81
2022/09/24 10:55:24;;;;;;;24.90;12.65;;;;;;;15.30;73.52;99586.22;5096678;27;20505;-84
2022/09/24 10:58:01;;;;;;;27.42;15.18;;;;;;;15.36;74.01;99582.84;5108134;27;20049;-84
2022/09/24 11:00:40;;;;;;;29.65;12.48;;;;;;;15.33;73.89;99571.66;5116220;27;20495;-83
2022/09/24 11:03:48;;;;;;;23.88;12.45;;;;;;;15.32;73.82;99581.53;5099787;28;20054;-82
2022/09/24 11:06:43;;;;;;;22.90;12.77;;;;;;;15.37;73.90;99581.03;5128189;27;20073;-82
2022/09/24 11:09:22;;;;;;;24.77;10.90;;;;;;;15.36;73.77;99580.16;5130539;27;20138;-82
2022/09/24 11:12:06;;;;;;;23.65;12.77;;;;;;;15.35;74.08;99588.38;5133354;27;20039;-83
2022/09/24 11:15:04;;;;;;;41.30;24.73;;;;;;;15.35;74.28;99577.69;5129312;27;20067;-82
2022/09/24 11:17:46;;;;;;;28.67;15.20;;;;;;;15.48;74.39;99582.50;5119238;27;20137;-83
2022/09/24 11:20:27;;;;;;;32.63;15.40;;;;;;;15.43;74.30;99579.50;5113909;27;20039;-82
2022/09/24 11:23:11;;;;;;;23.77;12.00;;;;;;;15.47;73.97;99584.34;5129708;27;20062;-82
2022/09/24 11:25:59;;;;;;;24.42;12.43;;;;;;;15.41;73.93;99585.00;5103978;27;20130;-82
2022/09/24 11:29:03;;;;;;;30.13;12.68;;;;;;;15.41;74.46;99577.81;5137918;27;20337;-82
2022/09/24 11:31:44;;;;;;;23.52;12.10;;;;;;;15.52;74.31;99573.09;5141044;27;20057;-82
2022/09/24 11:34:20;;;;;;;23.00;12.15;;;;;;;15.53;74.78;99570.25;5136841;27;20039;-82
2022/09/24 11:37:05;;;;;;;19.98;11.20;;;;;;;15.53;74.68;99577.44;5103597;27;20113;-82
2022/09/24 11:39:41;;;;;;;23.73;12.25;;;;;;;15.64;74.97;99571.69;5094360;27;20051;-81
2022/09/24 11:42:33;;;;;;;18.92;9.90;;;;;;;15.64;73.98;99563.66;5137492;27;20071;-82
2022/09/24 11:45:06;;;;;;;18.48;10.52;;;;;;;15.66;74.41;99564.31;5099050;27;20071;-82